sensor_id;sensor_type;location;lat;lon;timestamp;pressure;altitude;pressure_sealevel;temperature;humidity
75051;BME280;63628;47.656;11.310;2024-03-08T00:02:08;94595.72;;;5.18;75.27
75051;BME280;63628;47.656;11.310;2024-03-08T00:04:35;94594.72;;;5.19;75.36
75051;BME280;63628;47.656;11.310;2024-03-08T00:07:02;94599.34;;;5.17;75.65
75051;BME280;63628;47.656;11.310;2024-03-08T00:09:28;94593.31;;;5.17;75.74
75051;BME280;63628;47.656;11.310;2024-03-08T00:11:58;94596.72;;;5.17;75.51
75051;BME280;63628;47.656;11.310;2024-03-08T00:14:25;94595.13;;;5.16;75.47
75051;BME280;63628;47.656;11.310;2024-03-08T00:16:52;94597.16;;;5.14;75.86
75051;BME280;63628;47.656;11.310;2024-03-08T00:19:20;94584.22;;;5.13;75.72
75051;BME280;63628;47.656;11.310;2024-03-08T00:21:47;94584.22;;;5.13;75.36
75051;BME280;63628;47.656;11.310;2024-03-08T00:24:14;94576.75;;;5.16;74.99
75051;BME280;63628;47.656;11.310;2024-03-08T00:26:40;94579.19;;;5.11;75.87
75051;BME280;63628;47.656;11.310;2024-03-08T00:29:09;94571.53;;;5.09;75.19
75051;BME280;63628;47.656;11.310;2024-03-08T00:31:36;94571.53;;;5.09;75.67
75051;BME280;63628;47.656;11.310;2024-03-08T00:34:03;94568.09;;;5.09;75.09
75051;BME280;63628;47.656;11.310;2024-03-08T00:36:30;94562.25;;;5.07;75.74
75051;BME280;63628;47.656;11.310;2024-03-08T00:38:57;94568.31;;;5.07;75.58
75051;BME280;63628;47.656;11.310;2024-03-08T00:41:23;94562.66;;;5.04;75.14
75051;BME280;63628;47.656;11.310;2024-03-08T00:43:53;94557.41;;;5.04;75.51
75051;BME280;63628;47.656;11.310;2024-03-08T00:46:21;94552.97;;;5.04;75.37
75051;BME280;63628;47.656;11.310;2024-03-08T00:48:48;94559.22;;;5.03;75.76
75051;BME280;63628;47.656;11.310;2024-03-08T00:51:15;94550.56;;;5.03;75.83
75051;BME280;63628;47.656;11.310;2024-03-08T00:53:42;94552.38;;;5.02;74.96
75051;BME280;63628;47.656;11.310;2024-03-08T00:56:09;94551.78;;;5.00;75.90
75051;BME280;63628;47.656;11.310;2024-03-08T00:58:39;94552.16;;;5.04;74.77
75051;BME280;63628;47.656;11.310;2024-03-08T01:01:06;94559.84;;;4.99;75.42
75051;BME280;63628;47.656;11.310;2024-03-08T01:03:34;94549.34;;;4.99;75.42
75051;BME280;63628;47.656;11.310;2024-03-08T01:06:01;94546.72;;;4.99;74.81
75051;BME280;63628;47.656;11.310;2024-03-08T01:08:28;94535.84;;;4.95;75.85
75051;BME280;63628;47.656;11.310;2024-03-08T01:10:55;94541.09;;;4.95;75.30
75051;BME280;63628;47.656;11.310;2024-03-08T01:13:22;94534.84;;;4.96;75.27
75051;BME280;63628;47.656;11.310;2024-03-08T01:15:48;94530.00;;;4.93;75.07
75051;BME280;63628;47.656;11.310;2024-03-08T01:18:15;94531.81;;;4.93;75.26
75051;BME280;63628;47.656;11.310;2024-03-08T01:20:43;94532.84;;;4.92;76.03
75051;BME280;63628;47.656;11.310;2024-03-08T01:23:10;94524.16;;;4.91;75.66
75051;BME280;63628;47.656;11.310;2024-03-08T01:25:37;94530.00;;;4.93;74.89
75051;BME280;63628;47.656;11.310;2024-03-08T01:28:04;94520.53;;;4.86;75.57
75051;BME280;63628;47.656;11.310;2024-03-08T01:30:31;94518.53;;;4.88;75.66
75051;BME280;63628;47.656;11.310;2024-03-08T01:32:59;94519.94;;;4.90;75.57
75051;BME280;63628;47.656;11.310;2024-03-08T01:35:26;94520.94;;;4.89;75.54
75051;BME280;63628;47.656;11.310;2024-03-08T01:37:55;94515.69;;;4.89;75.72
75051;BME280;63628;47.656;11.310;2024-03-08T01:40:21;94523.75;;;4.55;73.49
75051;BME280;63628;47.656;11.310;2024-03-08T01:42:49;94513.09;;;4.83;75.49
75051;BME280;63628;47.656;11.310;2024-03-08T01:45:15;94511.88;;;4.85;75.73
75051;BME280;63628;47.656;11.310;2024-03-08T01:47:43;94507.44;;;4.86;75.49
75051;BME280;63628;47.656;11.310;2024-03-08T01:50:10;94507.63;;;4.84;75.78
75051;BME280;63628;47.656;11.310;2024-03-08T01:52:37;94509.03;;;4.87;75.54
75051;BME280;63628;47.656;11.310;2024-03-08T01:55:06;94494.72;;;4.83;75.01
75051;BME280;63628;47.656;11.310;2024-03-08T01:57:35;94494.13;;;4.81;75.49
75051;BME280;63628;47.656;11.310;2024-03-08T02:00:05;94494.94;;;4.81;75.54
75051;BME280;63628;47.656;11.310;2024-03-08T02:02:32;94493.94;;;4.82;75.49
75051;BME280;63628;47.656;11.310;2024-03-08T02:05:01;94500.19;;;4.81;75.10
75051;BME280;63628;47.656;11.310;2024-03-08T02:07:28;94496.75;;;4.81;75.03
75051;BME280;63628;47.656;11.310;2024-03-08T02:09:54;94488.69;;;4.29;74.36
75051;BME280;63628;47.656;11.310;2024-03-08T02:12:23;94493.34;;;4.67;75.54
75051;BME280;63628;47.656;11.310;2024-03-08T02:14:50;94496.56;;;4.75;75.28
75051;BME280;63628;47.656;11.310;2024-03-08T02:17:17;94479.00;;;4.83;75.09
75051;BME280;63628;47.656;11.310;2024-03-08T02:19:44;94481.84;;;4.22;74.82
75051;BME280;63628;47.656;11.310;2024-03-08T02:22:12;94480.03;;;4.68;75.81
75051;BME280;63628;47.656;11.310;2024-03-08T02:24:38;94472.56;;;4.72;76.06
75051;BME280;63628;47.656;11.310;2024-03-08T02:27:05;94476.81;;;4.73;75.57
75051;BME280;63628;47.656;11.310;2024-03-08T02:29:33;94479.44;;;4.73;75.24
75051;BME280;63628;47.656;11.310;2024-03-08T02:32:00;94475.19;;;4.72;75.14
75051;BME280;63628;47.656;11.310;2024-03-08T02:34:27;94473.38;;;4.72;75.53
75051;BME280;63628;47.656;11.310;2024-03-08T02:36:54;94478.63;;;4.72;75.74
75051;BME280;63628;47.656;11.310;2024-03-08T02:39:24;94475.19;;;4.72;75.36
75051;BME280;63628;47.656;11.310;2024-03-08T02:41:51;94478.81;;;4.71;75.73
75051;BME280;63628;47.656;11.310;2024-03-08T02:44:17;94470.16;;;4.70;75.68
75051;BME280;63628;47.656;11.310;2024-03-08T02:46:44;94472.97;;;4.69;75.04
75051;BME280;63628;47.656;11.310;2024-03-08T02:49:11;94468.75;;;4.68;75.16
75051;BME280;63628;47.656;11.310;2024-03-08T02:51:38;94472.19;;;4.68;75.60
75051;BME280;63628;47.656;11.310;2024-03-08T02:54:05;94463.72;;;4.66;75.37
75051;BME280;63628;47.656;11.310;2024-03-08T02:56:33;94467.13;;;4.67;75.88
75051;BME280;63628;47.656;11.310;2024-03-08T02:59:01;94467.34;;;4.65;75.89
75051;BME280;63628;47.656;11.310;2024-03-08T03:01:28;94464.94;;;4.64;75.37
75051;BME280;63628;47.656;11.310;2024-03-08T03:03:55;94464.94;;;4.64;75.91
75051;BME280;63628;47.656;11.310;2024-03-08T03:06:21;94464.94;;;4.64;75.87
75051;BME280;63628;47.656;11.310;2024-03-08T03:08:48;94458.88;;;4.63;75.58
75051;BME280;63628;47.656;11.310;2024-03-08T03:11:15;94455.47;;;4.63;75.28
75051;BME280;63628;47.656;11.310;2024-03-08T03:13:43;94451.03;;;4.63;75.66
75051;BME280;63628;47.656;11.310;2024-03-08T03:16:17;94449.63;;;4.61;75.59
75051;BME280;63628;47.656;11.310;2024-03-08T03:18:45;94451.81;;;4.64;75.59
75051;BME280;63628;47.656;11.310;2024-03-08T03:21:12;94445.19;;;4.61;75.66
75051;BME280;63628;47.656;11.310;2024-03-08T03:23:39;94451.44;;;4.60;75.15
75051;BME280;63628;47.656;11.310;2024-03-08T03:26:06;94442.75;;;4.60;75.19
75051;BME280;63628;47.656;11.310;2024-03-08T03:28:39;94443.78;;;4.59;74.98
75051;BME280;63628;47.656;11.310;2024-03-08T03:31:08;94441.97;;;4.59;75.10
75051;BME280;63628;47.656;11.310;2024-03-08T03:33:36;94438.72;;;4.57;75.92
75051;BME280;63628;47.656;11.310;2024-03-08T03:36:04;94430.06;;;4.57;75.19
75051;BME280;63628;47.656;11.310;2024-03-08T03:38:32;94437.94;;;4.57;75.04
75051;BME280;63628;47.656;11.310;2024-03-08T03:40:59;94434.50;;;4.56;75.32
75051;BME280;63628;47.656;11.310;2024-03-08T03:43:33;94436.50;;;4.54;75.35
75051;BME280;63628;47.656;11.310;2024-03-08T03:45:59;94427.66;;;4.55;75.15
75051;BME280;63628;47.656;11.310;2024-03-08T03:48:28;94430.28;;;4.55;76.02
75051;BME280;63628;47.656;11.310;2024-03-08T03:50:54;94427.66;;;4.35;71.65
75051;BME280;63628;47.656;11.310;2024-03-08T03:53:22;94426.47;;;4.05;74.56
75051;BME280;63628;47.656;11.310;2024-03-08T03:55:48;94432.06;;;4.41;75.53
75051;BME280;63628;47.656;11.310;2024-03-08T03:58:15;94424.84;;;4.30;72.11
75051;BME280;63628;47.656;11.310;2024-03-08T04:00:42;94437.09;;;3.83;69.67
75051;BME280;63628;47.656;11.310;2024-03-08T04:03:09;94428.47;;;4.23;76.89
75051;BME280;63628;47.656;11.310;2024-03-08T04:05:37;94436.28;;;3.15;71.77
75051;BME280;63628;47.656;11.310;2024-03-08T04:08:04;94437.84;;;3.51;79.40
75051;BME280;63628;47.656;11.310;2024-03-08T04:10:31;94434.31;;;4.25;76.53
75051;BME280;63628;47.656;11.310;2024-03-08T04:12:57;94441.38;;;2.48;80.48
75051;BME280;63628;47.656;11.310;2024-03-08T04:15:24;94440.16;;;2.16;75.69
75051;BME280;63628;47.656;11.310;2024-03-08T04:17:51;94431.91;;;3.23;81.18
75051;BME280;63628;47.656;11.310;2024-03-08T04:20:18;94432.28;;;3.19;73.11
75051;BME280;63628;47.656;11.310;2024-03-08T04:22:46;94431.41;;;1.81;79.83
75051;BME280;63628;47.656;11.310;2024-03-08T04:25:15;94430.75;;;2.84;82.28
75051;BME280;63628;47.656;11.310;2024-03-08T04:27:42;94419.75;;;3.63;79.18
75051;BME280;63628;47.656;11.310;2024-03-08T04:30:10;94430.06;;;1.42;79.09
75051;BME280;63628;47.656;11.310;2024-03-08T04:32:37;94420.00;;;1.61;84.44
75051;BME280;63628;47.656;11.310;2024-03-08T04:35:05;94429.19;;;0.84;84.36
75051;BME280;63628;47.656;11.310;2024-03-08T04:37:31;94427.66;;;0.46;85.91
75051;BME280;63628;47.656;11.310;2024-03-08T04:40:00;94432.50;;;0.34;87.65
75051;BME280;63628;47.656;11.310;2024-03-08T04:42:27;94428.13;;;0.79;88.11
75051;BME280;63628;47.656;11.310;2024-03-08T04:44:55;94425.66;;;0.04;87.24
75051;BME280;63628;47.656;11.310;2024-03-08T04:47:22;94421.38;;;0.25;88.09
75051;BME280;63628;47.656;11.310;2024-03-08T04:49:49;94426.31;;;0.20;88.00
75051;BME280;63628;47.656;11.310;2024-03-08T04:52:17;94422.09;;;1.72;88.46
75051;BME280;63628;47.656;11.310;2024-03-08T04:54:43;94416.09;;;0.34;84.97
75051;BME280;63628;47.656;11.310;2024-03-08T04:57:14;94411.31;;;1.32;86.21
75051;BME280;63628;47.656;11.310;2024-03-08T04:59:41;94418.69;;;0.78;87.16
75051;BME280;63628;47.656;11.310;2024-03-08T05:02:08;94418.16;;;0.68;86.02
75051;BME280;63628;47.656;11.310;2024-03-08T05:04:34;94415.81;;;0.14;87.11
75051;BME280;63628;47.656;11.310;2024-03-08T05:07:02;94415.53;;;0.23;86.73
75051;BME280;63628;47.656;11.310;2024-03-08T05:09:29;94415.94;;;-0.03;86.82
75051;BME280;63628;47.656;11.310;2024-03-08T05:11:58;94412.28;;;2.23;87.17
75051;BME280;63628;47.656;11.310;2024-03-08T05:14:27;94404.34;;;2.38;84.26
75051;BME280;63628;47.656;11.310;2024-03-08T05:16:54;94404.16;;;3.22;80.35
75051;BME280;63628;47.656;11.310;2024-03-08T05:19:21;94403.75;;;2.36;83.32
75051;BME280;63628;47.656;11.310;2024-03-08T05:21:49;94406.41;;;2.14;79.57
75051;BME280;63628;47.656;11.310;2024-03-08T05:24:17;94402.47;;;3.01;79.49
75051;BME280;63628;47.656;11.310;2024-03-08T05:26:45;94408.78;;;2.09;75.14
75051;BME280;63628;47.656;11.310;2024-03-08T05:29:13;94405.78;;;1.06;79.41
75051;BME280;63628;47.656;11.310;2024-03-08T05:31:46;94408.13;;;1.58;82.13
75051;BME280;63628;47.656;11.310;2024-03-08T05:34:13;94406.22;;;0.29;84.01
75051;BME280;63628;47.656;11.310;2024-03-08T05:36:41;94403.38;;;2.73;83.78
75051;BME280;63628;47.656;11.310;2024-03-08T05:39:10;94403.59;;;2.78;75.56
75051;BME280;63628;47.656;11.310;2024-03-08T05:41:38;94408.28;;;2.96;80.50
75051;BME280;63628;47.656;11.310;2024-03-08T05:44:05;94394.88;;;3.12;78.13
75051;BME280;63628;47.656;11.310;2024-03-08T05:46:33;94402.25;;;0.62;80.73
75051;BME280;63628;47.656;11.310;2024-03-08T05:49:01;94415.31;;;-0.05;85.08
75051;BME280;63628;47.656;11.310;2024-03-08T05:51:31;94403.25;;;0.61;88.41
75051;BME280;63628;47.656;11.310;2024-03-08T05:54:01;94406.00;;;1.89;78.00
75051;BME280;63628;47.656;11.310;2024-03-08T05:56:29;94394.44;;;3.02;79.23
75051;BME280;63628;47.656;11.310;2024-03-08T05:58:56;94397.50;;;2.37;82.64
75051;BME280;63628;47.656;11.310;2024-03-08T06:01:24;94398.78;;;3.36;79.11
75051;BME280;63628;47.656;11.310;2024-03-08T06:03:51;94395.66;;;1.75;77.73
75051;BME280;63628;47.656;11.310;2024-03-08T06:06:19;94392.97;;;3.41;79.86
75051;BME280;63628;47.656;11.310;2024-03-08T06:08:48;94391.56;;;3.58;78.34
75051;BME280;63628;47.656;11.310;2024-03-08T06:11:16;94384.34;;;3.67;78.31
75051;BME280;63628;47.656;11.310;2024-03-08T06:13:44;94386.56;;;3.70;77.76
75051;BME280;63628;47.656;11.310;2024-03-08T06:16:11;94388.75;;;3.66;78.07
75051;BME280;63628;47.656;11.310;2024-03-08T06:18:38;94391.78;;;3.63;77.63
75051;BME280;63628;47.656;11.310;2024-03-08T06:21:06;94387.75;;;3.67;78.27
75051;BME280;63628;47.656;11.310;2024-03-08T06:23:35;94396.63;;;3.73;77.94
75051;BME280;63628;47.656;11.310;2024-03-08T06:26:07;94395.06;;;3.11;74.22
75051;BME280;63628;47.656;11.310;2024-03-08T06:28:34;94398.38;;;2.16;72.43
75051;BME280;63628;47.656;11.310;2024-03-08T06:31:02;94404.41;;;2.85;80.94
75051;BME280;63628;47.656;11.310;2024-03-08T06:33:29;94393.97;;;3.40;77.95
75051;BME280;63628;47.656;11.310;2024-03-08T06:35:59;94409.25;;;2.54;78.80
75051;BME280;63628;47.656;11.310;2024-03-08T06:38:26;94390.69;;;3.25;78.16
75051;BME280;63628;47.656;11.310;2024-03-08T06:40:54;94392.34;;;3.32;73.61
75051;BME280;63628;47.656;11.310;2024-03-08T06:43:21;94393.34;;;2.83;72.46
75051;BME280;63628;47.656;11.310;2024-03-08T06:45:48;94390.97;;;3.56;78.40
75051;BME280;63628;47.656;11.310;2024-03-08T06:48:15;94399.16;;;2.44;72.59
75051;BME280;63628;47.656;11.310;2024-03-08T06:50:43;94396.81;;;2.56;72.89
75051;BME280;63628;47.656;11.310;2024-03-08T06:53:11;94399.50;;;1.00;79.08
75051;BME280;63628;47.656;11.310;2024-03-08T06:55:38;94401.81;;;1.67;85.26
75051;BME280;63628;47.656;11.310;2024-03-08T06:58:06;94389.16;;;2.89;81.92
75051;BME280;63628;47.656;11.310;2024-03-08T07:00:33;94395.19;;;3.50;78.35
75051;BME280;63628;47.656;11.310;2024-03-08T07:03:00;94405.06;;;2.25;73.72
75051;BME280;63628;47.656;11.310;2024-03-08T07:05:27;94397.13;;;1.84;84.00
75051;BME280;63628;47.656;11.310;2024-03-08T07:07:57;94388.31;;;0.85;79.78
75051;BME280;63628;47.656;11.310;2024-03-08T07:10:23;94394.63;;;0.76;84.23
75051;BME280;63628;47.656;11.310;2024-03-08T07:12:51;94389.06;;;0.20;85.70
75051;BME280;63628;47.656;11.310;2024-03-08T07:15:19;94389.06;;;0.49;85.67
75051;BME280;63628;47.656;11.310;2024-03-08T07:17:46;94386.16;;;1.46;87.90
75051;BME280;63628;47.656;11.310;2024-03-08T07:20:14;94382.53;;;2.52;84.25
75051;BME280;63628;47.656;11.310;2024-03-08T07:22:42;94374.63;;;3.28;80.14
75051;BME280;63628;47.656;11.310;2024-03-08T07:25:14;94382.00;;;1.73;81.25
75051;BME280;63628;47.656;11.310;2024-03-08T07:27:51;94384.47;;;1.17;80.97
75051;BME280;63628;47.656;11.310;2024-03-08T07:30:21;94382.41;;;1.76;78.33
75051;BME280;63628;47.656;11.310;2024-03-08T07:33:06;94380.72;;;0.24;86.42
75051;BME280;63628;47.656;11.310;2024-03-08T07:35:34;94381.22;;;1.79;85.62
75051;BME280;63628;47.656;11.310;2024-03-08T07:38:04;94370.94;;;3.09;80.05
75051;BME280;63628;47.656;11.310;2024-03-08T07:40:31;94372.03;;;3.34;78.53
75051;BME280;63628;47.656;11.310;2024-03-08T07:43:01;94361.75;;;3.33;78.94
75051;BME280;63628;47.656;11.310;2024-03-08T07:45:30;94373.69;;;1.63;78.18
75051;BME280;63628;47.656;11.310;2024-03-08T07:47:57;94366.88;;;3.00;80.34
75051;BME280;63628;47.656;11.310;2024-03-08T07:50:24;94361.38;;;2.75;74.69
75051;BME280;63628;47.656;11.310;2024-03-08T07:52:50;94362.56;;;2.72;78.16
75051;BME280;63628;47.656;11.310;2024-03-08T07:55:17;94366.06;;;2.99;75.50
75051;BME280;63628;47.656;11.310;2024-03-08T07:57:44;94367.63;;;1.83;79.02
75051;BME280;63628;47.656;11.310;2024-03-08T08:00:12;94368.41;;;2.40;81.79
75051;BME280;63628;47.656;11.310;2024-03-08T08:02:45;94363.19;;;3.35;78.73
75051;BME280;63628;47.656;11.310;2024-03-08T08:05:12;94357.75;;;3.50;78.26
75051;BME280;63628;47.656;11.310;2024-03-08T08:07:40;94349.91;;;3.50;77.16
75051;BME280;63628;47.656;11.310;2024-03-08T08:10:10;94350.72;;;3.64;77.08
75051;BME280;63628;47.656;11.310;2024-03-08T08:12:45;94350.13;;;3.62;77.43
75051;BME280;63628;47.656;11.310;2024-03-08T08:15:12;94347.31;;;3.57;76.90
75051;BME280;63628;47.656;11.310;2024-03-08T08:17:39;94348.31;;;3.62;77.20
75051;BME280;63628;47.656;11.310;2024-03-08T08:20:08;94346.91;;;3.66;77.08
75051;BME280;63628;47.656;11.310;2024-03-08T08:22:35;94347.31;;;3.63;76.71
75051;BME280;63628;47.656;11.310;2024-03-08T08:25:02;94346.69;;;3.61;77.14
75051;BME280;63628;47.656;11.310;2024-03-08T08:27:29;94339.66;;;3.62;77.50
75051;BME280;63628;47.656;11.310;2024-03-08T08:29:55;94334.44;;;3.68;76.79
75051;BME280;63628;47.656;11.310;2024-03-08T08:32:22;94336.63;;;3.65;77.05
75051;BME280;63628;47.656;11.310;2024-03-08T08:34:49;94325.78;;;3.68;77.28
75051;BME280;63628;47.656;11.310;2024-03-08T08:37:17;94327.38;;;3.69;76.52
75051;BME280;63628;47.656;11.310;2024-03-08T08:39:46;94320.34;;;3.63;77.09
75051;BME280;63628;47.656;11.310;2024-03-08T08:42:12;94317.31;;;3.66;77.18
75051;BME280;63628;47.656;11.310;2024-03-08T08:44:39;94318.31;;;3.65;77.03
75051;BME280;63628;47.656;11.310;2024-03-08T08:47:06;94314.50;;;3.67;77.07
75051;BME280;63628;47.656;11.310;2024-03-08T08:49:41;94310.06;;;3.68;76.81
75051;BME280;63628;47.656;11.310;2024-03-08T08:52:09;94316.13;;;3.68;76.75
75051;BME280;63628;47.656;11.310;2024-03-08T08:54:44;94312.09;;;3.66;77.12
75051;BME280;63628;47.656;11.310;2024-03-08T08:57:15;94317.31;;;3.53;77.30
75051;BME280;63628;47.656;11.310;2024-03-08T08:59:42;94317.94;;;3.68;76.61
75051;BME280;63628;47.656;11.310;2024-03-08T09:02:09;94316.13;;;3.48;77.17
75051;BME280;63628;47.656;11.310;2024-03-08T09:04:39;94324.16;;;2.25;79.64
75051;BME280;63628;47.656;11.310;2024-03-08T09:07:05;94316.91;;;3.49;77.92
75051;BME280;63628;47.656;11.310;2024-03-08T09:09:35;94317.13;;;3.67;77.59
75051;BME280;63628;47.656;11.310;2024-03-08T09:12:04;94316.72;;;3.70;76.72
75051;BME280;63628;47.656;11.310;2024-03-08T09:14:31;94313.09;;;3.71;76.88
75051;BME280;63628;47.656;11.310;2024-03-08T09:16:58;94316.94;;;2.68;75.17
75051;BME280;63628;47.656;11.310;2024-03-08T09:19:25;94310.41;;;3.12;79.08
75051;BME280;63628;47.656;11.310;2024-03-08T09:21:52;94313.38;;;2.00;80.34
75051;BME280;63628;47.656;11.310;2024-03-08T09:24:19;94307.09;;;2.70;81.47
75051;BME280;63628;47.656;11.310;2024-03-08T09:26:46;94303.84;;;3.29;78.76
75051;BME280;63628;47.656;11.310;2024-03-08T09:29:14;94299.41;;;3.56;77.67
75051;BME280;63628;47.656;11.310;2024-03-08T09:31:40;94314.91;;;2.22;78.50
75051;BME280;63628;47.656;11.310;2024-03-08T09:34:07;94298.38;;;3.24;79.90
75051;BME280;63628;47.656;11.310;2024-03-08T09:36:38;94303.94;;;2.88;77.08
75051;BME280;63628;47.656;11.310;2024-03-08T09:39:05;94290.16;;;3.60;77.83
75051;BME280;63628;47.656;11.310;2024-03-08T09:41:34;94288.13;;;3.69;77.65
75051;BME280;63628;47.656;11.310;2024-03-08T09:44:00;94277.47;;;3.70;77.01
75051;BME280;63628;47.656;11.310;2024-03-08T09:46:29;94286.31;;;3.69;77.04
75051;BME280;63628;47.656;11.310;2024-03-08T09:48:56;94288.75;;;3.58;77.46
75051;BME280;63628;47.656;11.310;2024-03-08T09:51:27;94273.84;;;3.71;77.64
75051;BME280;63628;47.656;11.310;2024-03-08T09:53:54;94277.66;;;3.75;77.01
75051;BME280;63628;47.656;11.310;2024-03-08T09:56:22;94268.81;;;3.76;77.45
75051;BME280;63628;47.656;11.310;2024-03-08T09:58:50;94277.66;;;3.75;77.74
75051;BME280;63628;47.656;11.310;2024-03-08T10:01:41;94268.81;;;3.76;77.77
75051;BME280;63628;47.656;11.310;2024-03-08T10:04:08;94270.22;;;3.79;77.08
75051;BME280;63628;47.656;11.310;2024-03-08T10:06:37;94266.31;;;4.21;79.33
75051;BME280;63628;47.656;11.310;2024-03-08T10:09:03;94261.16;;;3.81;77.17
75051;BME280;63628;47.656;11.310;2024-03-08T10:11:32;94267.38;;;3.87;77.69
75051;BME280;63628;47.656;11.310;2024-03-08T10:14:00;94262.59;;;3.58;77.95
75051;BME280;63628;47.656;11.310;2024-03-08T10:16:28;94262.75;;;3.82;79.84
75051;BME280;63628;47.656;11.310;2024-03-08T10:18:57;94260.97;;;3.63;78.68
75051;BME280;63628;47.656;11.310;2024-03-08T10:21:24;94257.09;;;4.12;79.44
75051;BME280;63628;47.656;11.310;2024-03-08T10:23:51;94255.53;;;3.65;76.40
75051;BME280;63628;47.656;11.310;2024-03-08T10:26:18;94258.69;;;4.13;81.43
75051;BME280;63628;47.656;11.310;2024-03-08T10:28:49;94249.78;;;4.78;75.03
75051;BME280;63628;47.656;11.310;2024-03-08T10:31:16;94252.25;;;4.16;76.09
75051;BME280;63628;47.656;11.310;2024-03-08T10:33:45;94245.88;;;3.92;77.37
75051;BME280;63628;47.656;11.310;2024-03-08T10:36:14;94252.88;;;4.62;82.74
75051;BME280;63628;47.656;11.310;2024-03-08T10:38:42;94250.00;;;5.08;75.84
75051;BME280;63628;47.656;11.310;2024-03-08T10:41:16;94242.47;;;4.87;79.44
75051;BME280;63628;47.656;11.310;2024-03-08T10:44:01;94241.47;;;4.37;76.04
75051;BME280;63628;47.656;11.310;2024-03-08T10:46:44;94233.63;;;4.82;75.12
75051;BME280;63628;47.656;11.310;2024-03-08T10:49:17;94235.06;;;5.84;78.22
75051;BME280;63628;47.656;11.310;2024-03-08T10:51:49;94223.03;;;6.38;74.27
75051;BME280;63628;47.656;11.310;2024-03-08T10:54:18;94224.84;;;5.01;76.25
75051;BME280;63628;47.656;11.310;2024-03-08T10:56:48;94226.47;;;4.95;74.74
75051;BME280;63628;47.656;11.310;2024-03-08T10:59:15;94223.00;;;5.58;73.63
75051;BME280;63628;47.656;11.310;2024-03-08T11:01:43;94220.94;;;5.10;74.28
75051;BME280;63628;47.656;11.310;2024-03-08T11:04:10;94215.34;;;4.24;77.37
75051;BME280;63628;47.656;11.310;2024-03-08T11:06:46;94213.41;;;4.51;76.71
75051;BME280;63628;47.656;11.310;2024-03-08T11:09:30;94216.63;;;4.53;76.60
75051;BME280;63628;47.656;11.310;2024-03-08T11:12:23;94197.66;;;4.95;75.14
75051;BME280;63628;47.656;11.310;2024-03-08T11:14:53;94201.56;;;5.86;73.69
75051;BME280;63628;47.656;11.310;2024-03-08T11:17:21;94196.00;;;6.49;70.46
75051;BME280;63628;47.656;11.310;2024-03-08T11:19:49;94186.91;;;6.51;72.20
75051;BME280;63628;47.656;11.310;2024-03-08T11:22:22;94191.16;;;6.16;73.04
75051;BME280;63628;47.656;11.310;2024-03-08T11:24:58;94190.50;;;5.77;75.80
75051;BME280;63628;47.656;11.310;2024-03-08T11:27:29;94180.72;;;6.09;72.31
75051;BME280;63628;47.656;11.310;2024-03-08T11:30:00;94178.81;;;6.16;72.38
75051;BME280;63628;47.656;11.310;2024-03-08T11:32:28;94171.16;;;7.05;72.47
75051;BME280;63628;47.656;11.310;2024-03-08T11:34:56;94169.13;;;6.65;73.40
75051;BME280;63628;47.656;11.310;2024-03-08T11:37:22;94162.00;;;5.81;72.47
75051;BME280;63628;47.656;11.310;2024-03-08T11:39:51;94163.44;;;8.03;67.10
75051;BME280;63628;47.656;11.310;2024-03-08T11:42:19;94170.28;;;5.59;72.68
75051;BME280;63628;47.656;11.310;2024-03-08T11:44:46;94160.72;;;7.51;69.43
75051;BME280;63628;47.656;11.310;2024-03-08T11:47:15;94148.47;;;9.17;64.65
75051;BME280;63628;47.656;11.310;2024-03-08T11:49:43;94150.75;;;7.30;69.65
75051;BME280;63628;47.656;11.310;2024-03-08T11:52:11;94149.47;;;7.79;67.50
75051;BME280;63628;47.656;11.310;2024-03-08T11:54:39;94143.78;;;5.86;73.30
75051;BME280;63628;47.656;11.310;2024-03-08T11:57:06;94142.00;;;7.06;78.30
75051;BME280;63628;47.656;11.310;2024-03-08T11:59:34;94134.72;;;8.30;70.30
75051;BME280;63628;47.656;11.310;2024-03-08T12:02:03;94121.09;;;7.70;68.53
75051;BME280;63628;47.656;11.310;2024-03-08T12:04:30;94129.22;;;9.72;65.36
75051;BME280;63628;47.656;11.310;2024-03-08T12:06:59;94117.88;;;8.71;69.61
75051;BME280;63628;47.656;11.310;2024-03-08T12:09:28;94120.16;;;7.06;69.82
75051;BME280;63628;47.656;11.310;2024-03-08T12:11:55;94115.22;;;6.86;70.22
75051;BME280;63628;47.656;11.310;2024-03-08T12:14:22;94108.41;;;7.43;70.40
75051;BME280;63628;47.656;11.310;2024-03-08T12:16:51;94104.25;;;7.71;71.53
75051;BME280;63628;47.656;11.310;2024-03-08T12:19:19;94107.94;;;7.46;69.37
75051;BME280;63628;47.656;11.310;2024-03-08T12:21:45;94101.19;;;7.50;72.01
75051;BME280;63628;47.656;11.310;2024-03-08T12:24:16;94096.84;;;7.44;70.04
75051;BME280;63628;47.656;11.310;2024-03-08T12:26:46;94098.50;;;6.68;74.66
75051;BME280;63628;47.656;11.310;2024-03-08T12:29:16;94096.16;;;7.14;72.21
75051;BME280;63628;47.656;11.310;2024-03-08T12:31:55;94089.53;;;7.35;70.12
75051;BME280;63628;47.656;11.310;2024-03-08T12:34:24;94092.94;;;7.12;71.32
75051;BME280;63628;47.656;11.310;2024-03-08T12:36:54;94079.31;;;6.80;71.16
75051;BME280;63628;47.656;11.310;2024-03-08T12:39:22;94075.34;;;7.36;71.92
75051;BME280;63628;47.656;11.310;2024-03-08T12:41:49;94068.22;;;6.89;73.15
75051;BME280;63628;47.656;11.310;2024-03-08T12:44:18;94067.00;;;7.27;71.61
75051;BME280;63628;47.656;11.310;2024-03-08T12:46:45;94065.84;;;7.46;73.05
75051;BME280;63628;47.656;11.310;2024-03-08T12:49:14;94060.22;;;7.54;71.05
75051;BME280;63628;47.656;11.310;2024-03-08T12:51:44;94053.56;;;7.52;70.97
75051;BME280;63628;47.656;11.310;2024-03-08T12:54:11;94056.91;;;7.47;70.54
75051;BME280;63628;47.656;11.310;2024-03-08T12:56:38;94050.53;;;7.31;70.41
75051;BME280;63628;47.656;11.310;2024-03-08T12:59:07;94036.22;;;7.27;71.82
75051;BME280;63628;47.656;11.310;2024-03-08T13:01:34;94045.69;;;7.40;69.92
75051;BME280;63628;47.656;11.310;2024-03-08T13:04:04;94033.97;;;7.71;69.65
75051;BME280;63628;47.656;11.310;2024-03-08T13:06:34;94034.69;;;7.55;69.80